sensor_id;sensor_type;location;lat;lon;timestamp;P1;durP1;ratioP1;P2;durP2;ratioP2
47113;SDS011;32867;51.556;6.832;2023-07-24T00:04:36;6.88;;;3.13;;
47113;SDS011;32867;51.556;6.832;2023-07-24T00:09:37;6.38;;;3.15;;
47113;SDS011;32867;51.556;6.832;2023-07-24T00:14:37;6.82;;;3.55;;
47113;SDS011;32867;51.556;6.832;2023-07-24T00:19:38;7.80;;;3.97;;
47113;SDS011;32867;51.556;6.832;2023-07-24T00:24:38;8.15;;;3.72;;
47113;SDS011;32867;51.556;6.832;2023-07-24T00:29:39;9.05;;;3.95;;
47113;SDS011;32867;51.556;6.832;2023-07-24T00:34:40;6.50;;;4.15;;
47113;SDS011;32867;51.556;6.832;2023-07-24T00:39:40;7.15;;;4.45;;
47113;SDS011;32867;51.556;6.832;2023-07-24T00:44:41;7.22;;;3.80;;
47113;SDS011;32867;51.556;6.832;2023-07-24T00:49:42;5.53;;;3.70;;
47113;SDS011;32867;51.556;6.832;2023-07-24T00:54:43;8.38;;;4.43;;
47113;SDS011;32867;51.556;6.832;2023-07-24T00:59:47;5.50;;;4.00;;
47113;SDS011;32867;51.556;6.832;2023-07-24T01:04:47;6.38;;;4.10;;
47113;SDS011;32867;51.556;6.832;2023-07-24T01:09:48;9.93;;;4.55;;
47113;SDS011;32867;51.556;6.832;2023-07-24T01:20:10;5.65;;;4.28;;
47113;SDS011;32867;51.556;6.832;2023-07-24T01:30:31;6.68;;;4.00;;
47113;SDS011;32867;51.556;6.832;2023-07-24T01:35:31;7.07;;;3.33;;
47113;SDS011;32867;51.556;6.832;2023-07-24T01:40:33;6.38;;;3.85;;
47113;SDS011;32867;51.556;6.832;2023-07-24T01:45:34;5.68;;;3.25;;
47113;SDS011;32867;51.556;6.832;2023-07-24T01:50:35;7.60;;;4.07;;
47113;SDS011;32867;51.556;6.832;2023-07-24T01:55:36;6.20;;;3.60;;
47113;SDS011;32867;51.556;6.832;2023-07-24T02:00:37;6.93;;;3.60;;
47113;SDS011;32867;51.556;6.832;2023-07-24T02:05:38;6.85;;;3.58;;
47113;SDS011;32867;51.556;6.832;2023-07-24T02:10:39;6.03;;;3.80;;
47113;SDS011;32867;51.556;6.832;2023-07-24T02:15:39;5.15;;;3.08;;
47113;SDS011;32867;51.556;6.832;2023-07-24T02:20:40;5.03;;;3.53;;
47113;SDS011;32867;51.556;6.832;2023-07-24T02:25:41;4.72;;;3.25;;
47113;SDS011;32867;51.556;6.832;2023-07-24T02:30:43;4.93;;;3.38;;
47113;SDS011;32867;51.556;6.832;2023-07-24T02:35:43;4.93;;;3.28;;
47113;SDS011;32867;51.556;6.832;2023-07-24T02:40:44;4.97;;;3.17;;
47113;SDS011;32867;51.556;6.832;2023-07-24T02:45:45;6.30;;;3.75;;
47113;SDS011;32867;51.556;6.832;2023-07-24T02:50:47;5.93;;;3.78;;
47113;SDS011;32867;51.556;6.832;2023-07-24T02:55:49;4.30;;;3.25;;
47113;SDS011;32867;51.556;6.832;2023-07-24T03:00:49;5.53;;;3.72;;
47113;SDS011;32867;51.556;6.832;2023-07-24T03:05:50;5.82;;;3.65;;
47113;SDS011;32867;51.556;6.832;2023-07-24T03:10:50;7.97;;;4.05;;
47113;SDS011;32867;51.556;6.832;2023-07-24T03:15:52;7.32;;;4.18;;
47113;SDS011;32867;51.556;6.832;2023-07-24T03:20:53;7.18;;;4.00;;
47113;SDS011;32867;51.556;6.832;2023-07-24T03:25:57;7.60;;;4.90;;
47113;SDS011;32867;51.556;6.832;2023-07-24T03:30:57;8.43;;;4.80;;
47113;SDS011;32867;51.556;6.832;2023-07-24T03:35:58;6.47;;;4.80;;
47113;SDS011;32867;51.556;6.832;2023-07-24T03:40:59;7.60;;;4.78;;
47113;SDS011;32867;51.556;6.832;2023-07-24T03:45:59;11.30;;;5.22;;
47113;SDS011;32867;51.556;6.832;2023-07-24T03:51:00;6.93;;;5.00;;
47113;SDS011;32867;51.556;6.832;2023-07-24T03:56:01;8.27;;;5.10;;
47113;SDS011;32867;51.556;6.832;2023-07-24T04:01:02;7.53;;;4.90;;
47113;SDS011;32867;51.556;6.832;2023-07-24T04:06:02;9.95;;;6.07;;
47113;SDS011;32867;51.556;6.832;2023-07-24T04:11:03;9.50;;;5.35;;
47113;SDS011;32867;51.556;6.832;2023-07-24T04:16:05;10.25;;;5.30;;
47113;SDS011;32867;51.556;6.832;2023-07-24T04:21:05;9.32;;;5.28;;
47113;SDS011;32867;51.556;6.832;2023-07-24T04:26:06;8.38;;;5.35;;
47113;SDS011;32867;51.556;6.832;2023-07-24T04:31:07;9.98;;;6.10;;
47113;SDS011;32867;51.556;6.832;2023-07-24T04:36:08;9.65;;;6.00;;
47113;SDS011;32867;51.556;6.832;2023-07-24T04:41:08;11.18;;;6.78;;
47113;SDS011;32867;51.556;6.832;2023-07-24T04:46:09;11.82;;;5.78;;
47113;SDS011;32867;51.556;6.832;2023-07-24T04:51:10;10.10;;;6.18;;
47113;SDS011;32867;51.556;6.832;2023-07-24T04:56:10;11.30;;;6.95;;
47113;SDS011;32867;51.556;6.832;2023-07-24T05:01:11;10.30;;;5.85;;
47113;SDS011;32867;51.556;6.832;2023-07-24T05:06:12;13.77;;;7.25;;
47113;SDS011;32867;51.556;6.832;2023-07-24T05:11:12;10.15;;;6.10;;
47113;SDS011;32867;51.556;6.832;2023-07-24T05:16:13;12.77;;;6.00;;
47113;SDS011;32867;51.556;6.832;2023-07-24T05:21:14;10.20;;;6.22;;
47113;SDS011;32867;51.556;6.832;2023-07-24T05:26:14;10.15;;;5.28;;
47113;SDS011;32867;51.556;6.832;2023-07-24T05:31:15;10.98;;;6.00;;
47113;SDS011;32867;51.556;6.832;2023-07-24T05:36:16;10.85;;;5.45;;
47113;SDS011;32867;51.556;6.832;2023-07-24T05:41:16;9.13;;;6.00;;
47113;SDS011;32867;51.556;6.832;2023-07-24T05:46:17;12.27;;;7.63;;
47113;SDS011;32867;51.556;6.832;2023-07-24T05:51:17;10.82;;;5.90;;
47113;SDS011;32867;51.556;6.832;2023-07-24T05:56:18;11.27;;;7.28;;
47113;SDS011;32867;51.556;6.832;2023-07-24T06:01:19;13.00;;;6.88;;
47113;SDS011;32867;51.556;6.832;2023-07-24T06:06:19;14.25;;;7.80;;
47113;SDS011;32867;51.556;6.832;2023-07-24T06:11:20;11.73;;;7.90;;
47113;SDS011;32867;51.556;6.832;2023-07-24T06:16:23;11.10;;;7.47;;
47113;SDS011;32867;51.556;6.832;2023-07-24T06:21:23;13.40;;;7.53;;
47113;SDS011;32867;51.556;6.832;2023-07-24T06:26:24;9.32;;;5.45;;
47113;SDS011;32867;51.556;6.832;2023-07-24T06:31:24;7.28;;;5.40;;
47113;SDS011;32867;51.556;6.832;2023-07-24T06:36:25;9.90;;;5.75;;
47113;SDS011;32867;51.556;6.832;2023-07-24T06:41:26;13.02;;;6.15;;
47113;SDS011;32867;51.556;6.832;2023-07-24T06:46:27;9.88;;;7.10;;
47113;SDS011;32867;51.556;6.832;2023-07-24T06:51:27;10.32;;;6.53;;
47113;SDS011;32867;51.556;6.832;2023-07-24T06:56:28;7.40;;;3.45;;
47113;SDS011;32867;51.556;6.832;2023-07-24T07:01:29;5.80;;;2.50;;
47113;SDS011;32867;51.556;6.832;2023-07-24T07:06:29;3.28;;;2.13;;
47113;SDS011;32867;51.556;6.832;2023-07-24T07:11:30;5.55;;;2.03;;
47113;SDS011;32867;51.556;6.832;2023-07-24T07:16:30;4.20;;;1.90;;
47113;SDS011;32867;51.556;6.832;2023-07-24T07:21:31;2.35;;;1.52;;
47113;SDS011;32867;51.556;6.832;2023-07-24T07:26:32;4.38;;;2.10;;
47113;SDS011;32867;51.556;6.832;2023-07-24T07:31:33;3.72;;;1.90;;
47113;SDS011;32867;51.556;6.832;2023-07-24T07:36:34;3.55;;;2.20;;
47113;SDS011;32867;51.556;6.832;2023-07-24T07:41:34;2.85;;;2.10;;
47113;SDS011;32867;51.556;6.832;2023-07-24T07:46:35;4.57;;;2.78;;
47113;SDS011;32867;51.556;6.832;2023-07-24T07:51:36;3.70;;;2.60;;
47113;SDS011;32867;51.556;6.832;2023-07-24T07:56:36;4.35;;;2.97;;
47113;SDS011;32867;51.556;6.832;2023-07-24T08:01:37;4.03;;;2.63;;
47113;SDS011;32867;51.556;6.832;2023-07-24T08:06:42;4.07;;;2.83;;
47113;SDS011;32867;51.556;6.832;2023-07-24T08:11:42;4.18;;;2.60;;
47113;SDS011;32867;51.556;6.832;2023-07-24T08:16:43;3.08;;;1.98;;
47113;SDS011;32867;51.556;6.832;2023-07-24T08:21:44;3.15;;;2.00;;
47113;SDS011;32867;51.556;6.832;2023-07-24T08:26:44;3.33;;;2.05;;
47113;SDS011;32867;51.556;6.832;2023-07-24T08:31:45;3.40;;;1.88;;
47113;SDS011;32867;51.556;6.832;2023-07-24T08:36:46;1.90;;;1.45;;
47113;SDS011;32867;51.556;6.832;2023-07-24T08:41:46;2.33;;;1.60;;
47113;SDS011;32867;51.556;6.832;2023-07-24T08:46:47;2.80;;;1.38;;
47113;SDS011;32867;51.556;6.832;2023-07-24T08:51:49;3.67;;;1.60;;
47113;SDS011;32867;51.556;6.832;2023-07-24T08:56:50;3.45;;;1.70;;
47113;SDS011;32867;51.556;6.832;2023-07-24T09:01:52;6.10;;;1.67;;
47113;SDS011;32867;51.556;6.832;2023-07-24T09:06:53;2.90;;;1.65;;
47113;SDS011;32867;51.556;6.832;2023-07-24T09:11:56;3.03;;;1.80;;
47113;SDS011;32867;51.556;6.832;2023-07-24T09:17:08;3.10;;;1.80;;
47113;SDS011;32867;51.556;6.832;2023-07-24T09:22:16;7.22;;;2.10;;
47113;SDS011;32867;51.556;6.832;2023-07-24T09:27:20;2.80;;;1.60;;
47113;SDS011;32867;51.556;6.832;2023-07-24T09:32:23;3.85;;;1.73;;
47113;SDS011;32867;51.556;6.832;2023-07-24T09:37:27;2.70;;;1.80;;
47113;SDS011;32867;51.556;6.832;2023-07-24T09:42:37;2.97;;;1.77;;
47113;SDS011;32867;51.556;6.832;2023-07-24T09:47:39;3.67;;;2.10;;
47113;SDS011;32867;51.556;6.832;2023-07-24T09:52:40;3.70;;;2.10;;
47113;SDS011;32867;51.556;6.832;2023-07-24T09:57:44;2.80;;;1.67;;
47113;SDS011;32867;51.556;6.832;2023-07-24T10:02:46;2.45;;;1.60;;
47113;SDS011;32867;51.556;6.832;2023-07-24T10:07:48;3.28;;;1.90;;
47113;SDS011;32867;51.556;6.832;2023-07-24T10:12:50;2.13;;;1.55;;
47113;SDS011;32867;51.556;6.832;2023-07-24T10:18:00;4.05;;;2.15;;
47113;SDS011;32867;51.556;6.832;2023-07-24T10:23:05;4.22;;;2.20;;
47113;SDS011;32867;51.556;6.832;2023-07-24T10:28:08;5.80;;;2.17;;
47113;SDS011;32867;51.556;6.832;2023-07-24T10:33:12;3.72;;;2.13;;
47113;SDS011;32867;51.556;6.832;2023-07-24T10:38:17;7.17;;;2.10;;
47113;SDS011;32867;51.556;6.832;2023-07-24T10:43:18;3.08;;;2.10;;
47113;SDS011;32867;51.556;6.832;2023-07-24T10:48:24;3.28;;;1.80;;
47113;SDS011;32867;51.556;6.832;2023-07-24T10:53:25;2.97;;;2.05;;
47113;SDS011;32867;51.556;6.832;2023-07-24T10:58:27;3.83;;;2.30;;
47113;SDS011;32867;51.556;6.832;2023-07-24T11:03:27;3.00;;;2.05;;
47113;SDS011;32867;51.556;6.832;2023-07-24T11:08:28;3.92;;;2.53;;
47113;SDS011;32867;51.556;6.832;2023-07-24T11:13:31;4.25;;;2.80;;
47113;SDS011;32867;51.556;6.832;2023-07-24T11:18:43;5.80;;;3.03;;
47113;SDS011;32867;51.556;6.832;2023-07-24T11:23:48;7.05;;;3.70;;
47113;SDS011;32867;51.556;6.832;2023-07-24T11:28:51;7.15;;;4.05;;
47113;SDS011;32867;51.556;6.832;2023-07-24T11:33:52;9.73;;;5.63;;
47113;SDS011;32867;51.556;6.832;2023-07-24T11:38:54;6.68;;;5.07;;
47113;SDS011;32867;51.556;6.832;2023-07-24T11:43:54;6.18;;;4.38;;
47113;SDS011;32867;51.556;6.832;2023-07-24T11:48:55;5.30;;;3.30;;
47113;SDS011;32867;51.556;6.832;2023-07-24T11:54:04;5.22;;;3.63;;
47113;SDS011;32867;51.556;6.832;2023-07-24T11:59:10;6.30;;;4.30;;
47113;SDS011;32867;51.556;6.832;2023-07-24T12:04:12;6.40;;;4.70;;
47113;SDS011;32867;51.556;6.832;2023-07-24T12:09:13;7.88;;;4.75;;
47113;SDS011;32867;51.556;6.832;2023-07-24T12:14:14;5.70;;;4.15;;
47113;SDS011;32867;51.556;6.832;2023-07-24T12:19:15;5.25;;;3.88;;
47113;SDS011;32867;51.556;6.832;2023-07-24T12:24:15;7.15;;;4.38;;
47113;SDS011;32867;51.556;6.832;2023-07-24T12:29:17;6.22;;;4.30;;
47113;SDS011;32867;51.556;6.832;2023-07-24T12:34:18;8.18;;;4.20;;
47113;SDS011;32867;51.556;6.832;2023-07-24T12:39:19;5.53;;;2.85;;
47113;SDS011;32867;51.556;6.832;2023-07-24T12:44:19;3.50;;;2.20;;
47113;SDS011;32867;51.556;6.832;2023-07-24T12:49:20;3.72;;;2.25;;
47113;SDS011;32867;51.556;6.832;2023-07-24T12:54:21;3.42;;;1.88;;
47113;SDS011;32867;51.556;6.832;2023-07-24T12:59:22;3.83;;;1.92;;
47113;SDS011;32867;51.556;6.832;2023-07-24T13:04:23;4.07;;;1.90;;
47113;SDS011;32867;51.556;6.832;2023-07-24T13:09:24;2.72;;;1.90;;
47113;SDS011;32867;51.556;6.832;2023-07-24T13:14:25;5.13;;;2.10;;
47113;SDS011;32867;51.556;6.832;2023-07-24T13:19:26;2.85;;;2.10;;
47113;SDS011;32867;51.556;6.832;2023-07-24T13:24:27;4.22;;;1.83;;
47113;SDS011;32867;51.556;6.832;2023-07-24T13:29:29;3.05;;;1.75;;
47113;SDS011;32867;51.556;6.832;2023-07-24T13:34:31;3.58;;;2.22;;
47113;SDS011;32867;51.556;6.832;2023-07-24T13:39:31;3.05;;;1.92;;
47113;SDS011;32867;51.556;6.832;2023-07-24T13:44:33;3.25;;;1.92;;
47113;SDS011;32867;51.556;6.832;2023-07-24T13:49:34;2.63;;;1.83;;
47113;SDS011;32867;51.556;6.832;2023-07-24T13:54:35;3.70;;;1.92;;
47113;SDS011;32867;51.556;6.832;2023-07-24T13:59:36;3.35;;;2.08;;
47113;SDS011;32867;51.556;6.832;2023-07-24T14:04:39;4.15;;;2.15;;
47113;SDS011;32867;51.556;6.832;2023-07-24T14:09:40;4.10;;;2.47;;
47113;SDS011;32867;51.556;6.832;2023-07-24T14:14:40;3.10;;;2.00;;
47113;SDS011;32867;51.556;6.832;2023-07-24T14:19:41;4.35;;;2.38;;
47113;SDS011;32867;51.556;6.832;2023-07-24T14:24:42;3.17;;;2.20;;
47113;SDS011;32867;51.556;6.832;2023-07-24T14:29:43;2.70;;;1.80;;
47113;SDS011;32867;51.556;6.832;2023-07-24T14:34:43;3.50;;;2.22;;
47113;SDS011;32867;51.556;6.832;2023-07-24T14:39:45;3.83;;;2.17;;
47113;SDS011;32867;51.556;6.832;2023-07-24T14:44:46;4.45;;;2.63;;
47113;SDS011;32867;51.556;6.832;2023-07-24T14:49:47;4.07;;;2.33;;
47113;SDS011;32867;51.556;6.832;2023-07-24T14:54:47;3.55;;;2.15;;
47113;SDS011;32867;51.556;6.832;2023-07-24T14:59:48;5.07;;;2.60;;
47113;SDS011;32867;51.556;6.832;2023-07-24T15:04:48;4.97;;;2.90;;
47113;SDS011;32867;51.556;6.832;2023-07-24T15:09:49;5.32;;;2.85;;
47113;SDS011;32867;51.556;6.832;2023-07-24T15:14:50;4.18;;;2.63;;
47113;SDS011;32867;51.556;6.832;2023-07-24T15:19:51;4.47;;;3.22;;
47113;SDS011;32867;51.556;6.832;2023-07-24T15:24:52;4.93;;;2.70;;
47113;SDS011;32867;51.556;6.832;2023-07-24T15:29:52;5.78;;;4.30;;
47113;SDS011;32867;51.556;6.832;2023-07-24T15:34:53;10.60;;;3.40;;
47113;SDS011;32867;51.556;6.832;2023-07-24T15:39:54;6.05;;;3.50;;
47113;SDS011;32867;51.556;6.832;2023-07-24T15:44:55;6.30;;;4.43;;
47113;SDS011;32867;51.556;6.832;2023-07-24T15:49:56;5.70;;;3.90;;
47113;SDS011;32867;51.556;6.832;2023-07-24T15:54:58;5.60;;;4.50;;
47113;SDS011;32867;51.556;6.832;2023-07-24T15:59:59;6.70;;;4.32;;
47113;SDS011;32867;51.556;6.832;2023-07-24T16:05:00;8.55;;;6.22;;
47113;SDS011;32867;51.556;6.832;2023-07-24T16:10:15;7.78;;;5.82;;
47113;SDS011;32867;51.556;6.832;2023-07-24T16:15:18;8.38;;;6.28;;
47113;SDS011;32867;51.556;6.832;2023-07-24T16:20:19;5.68;;;4.47;;
47113;SDS011;32867;51.556;6.832;2023-07-24T16:25:21;3.30;;;2.15;;
47113;SDS011;32867;51.556;6.832;2023-07-24T16:30:22;3.88;;;2.17;;
47113;SDS011;32867;51.556;6.832;2023-07-24T16:35:22;3.53;;;1.70;;
47113;SDS011;32867;51.556;6.832;2023-07-24T16:40:23;2.92;;;1.77;;
47113;SDS011;32867;51.556;6.832;2023-07-24T16:45:25;3.17;;;1.90;;
47113;SDS011;32867;51.556;6.832;2023-07-24T16:50:25;2.70;;;1.70;;
47113;SDS011;32867;51.556;6.832;2023-07-24T16:55:29;3.55;;;2.25;;
47113;SDS011;32867;51.556;6.832;2023-07-24T17:00:30;3.35;;;2.35;;
47113;SDS011;32867;51.556;6.832;2023-07-24T17:05:30;4.78;;;2.55;;
47113;SDS011;32867;51.556;6.832;2023-07-24T17:10:41;4.35;;;2.78;;
47113;SDS011;32867;51.556;6.832;2023-07-24T17:15:44;5.03;;;2.88;;
47113;SDS011;32867;51.556;6.832;2023-07-24T17:20:45;6.57;;;3.00;;
47113;SDS011;32867;51.556;6.832;2023-07-24T17:25:46;8.10;;;4.40;;
47113;SDS011;32867;51.556;6.832;2023-07-24T17:30:47;6.05;;;4.22;;
47113;SDS011;32867;51.556;6.832;2023-07-24T17:35:47;5.90;;;4.70;;
47113;SDS011;32867;51.556;6.832;2023-07-24T17:40:48;7.00;;;4.38;;
47113;SDS011;32867;51.556;6.832;2023-07-24T17:45:49;9.02;;;5.05;;
47113;SDS011;32867;51.556;6.832;2023-07-24T17:50:50;6.00;;;4.65;;
47113;SDS011;32867;51.556;6.832;2023-07-24T17:55:50;7.03;;;5.20;;
47113;SDS011;32867;51.556;6.832;2023-07-24T18:00:51;9.90;;;5.07;;
47113;SDS011;32867;51.556;6.832;2023-07-24T18:05:55;8.38;;;7.00;;
47113;SDS011;32867;51.556;6.832;2023-07-24T18:10:58;9.55;;;6.68;;
47113;SDS011;32867;51.556;6.832;2023-07-24T18:15:59;9.40;;;6.75;;
47113;SDS011;32867;51.556;6.832;2023-07-24T18:21:00;8.25;;;6.90;;
47113;SDS011;32867;51.556;6.832;2023-07-24T18:26:04;9.52;;;6.43;;
47113;SDS011;32867;51.556;6.832;2023-07-24T18:31:06;8.85;;;7.18;;
47113;SDS011;32867;51.556;6.832;2023-07-24T18:36:07;8.18;;;6.57;;
47113;SDS011;32867;51.556;6.832;2023-07-24T18:41:08;9.68;;;6.55;;
47113;SDS011;32867;51.556;6.832;2023-07-24T18:46:09;7.75;;;6.55;;
47113;SDS011;32867;51.556;6.832;2023-07-24T18:51:10;8.77;;;6.28;;
47113;SDS011;32867;51.556;6.832;2023-07-24T18:56:11;9.13;;;7.13;;
47113;SDS011;32867;51.556;6.832;2023-07-24T19:01:13;10.27;;;7.00;;
47113;SDS011;32867;51.556;6.832;2023-07-24T19:06:13;10.48;;;7.38;;
47113;SDS011;32867;51.556;6.832;2023-07-24T19:11:18;9.60;;;7.53;;
47113;SDS011;32867;51.556;6.832;2023-07-24T19:16:19;10.73;;;8.32;;
47113;SDS011;32867;51.556;6.832;2023-07-24T19:21:20;11.73;;;8.15;;
47113;SDS011;32867;51.556;6.832;2023-07-24T19:26:21;11.73;;;9.13;;
47113;SDS011;32867;51.556;6.832;2023-07-24T19:31:22;12.98;;;9.07;;
47113;SDS011;32867;51.556;6.832;2023-07-24T19:36:25;11.90;;;9.20;;
47113;SDS011;32867;51.556;6.832;2023-07-24T19:41:26;13.80;;;8.77;;
47113;SDS011;32867;51.556;6.832;2023-07-24T19:46:27;7.78;;;5.95;;
47113;SDS011;32867;51.556;6.832;2023-07-24T19:51:28;9.57;;;6.90;;
47113;SDS011;32867;51.556;6.832;2023-07-24T19:56:29;8.57;;;6.10;;
47113;SDS011;32867;51.556;6.832;2023-07-24T20:01:30;10.48;;;6.63;;
47113;SDS011;32867;51.556;6.832;2023-07-24T20:06:31;7.13;;;5.07;;
47113;SDS011;32867;51.556;6.832;2023-07-24T20:11:32;8.90;;;5.15;;
47113;SDS011;32867;51.556;6.832;2023-07-24T20:16:34;7.78;;;4.05;;
47113;SDS011;32867;51.556;6.832;2023-07-24T20:21:35;6.28;;;3.63;;
47113;SDS011;32867;51.556;6.832;2023-07-24T20:26:35;6.72;;;3.30;;
47113;SDS011;32867;51.556;6.832;2023-07-24T20:31:39;6.40;;;3.05;;
47113;SDS011;32867;51.556;6.832;2023-07-24T20:36:40;5.88;;;2.80;;
47113;SDS011;32867;51.556;6.832;2023-07-24T20:41:41;4.63;;;1.92;;
47113;SDS011;32867;51.556;6.832;2023-07-24T20:46:42;5.00;;;2.00;;
47113;SDS011;32867;51.556;6.832;2023-07-24T20:51:43;3.95;;;1.80;;
47113;SDS011;32867;51.556;6.832;2023-07-24T20:56:44;5.25;;;2.08;;
47113;SDS011;32867;51.556;6.832;2023-07-24T21:01:44;4.50;;;2.35;;
47113;SDS011;32867;51.556;6.832;2023-07-24T21:06:45;6.57;;;2.40;;
47113;SDS011;32867;51.556;6.832;2023-07-24T21:11:50;5.90;;;2.20;;
47113;SDS011;32867;51.556;6.832;2023-07-24T21:16:51;3.88;;;1.80;;
47113;SDS011;32867;51.556;6.832;2023-07-24T21:21:54;4.10;;;1.70;;
47113;SDS011;32867;51.556;6.832;2023-07-24T21:26:56;4.70;;;2.10;;
47113;SDS011;32867;51.556;6.832;2023-07-24T21:31:57;4.20;;;1.80;;
47113;SDS011;32867;51.556;6.832;2023-07-24T21:36:58;4.45;;;1.83;;
47113;SDS011;32867;51.556;6.832;2023-07-24T21:42:00;5.00;;;1.98;;
47113;SDS011;32867;51.556;6.832;2023-07-24T21:47:01;3.75;;;1.58;;
47113;SDS011;32867;51.556;6.832;2023-07-24T21:52:01;3.53;;;1.58;;
47113;SDS011;32867;51.556;6.832;2023-07-24T21:57:03;6.55;;;2.30;;
47113;SDS011;32867;51.556;6.832;2023-07-24T22:02:06;4.95;;;2.00;;
47113;SDS011;32867;51.556;6.832;2023-07-24T22:07:06;4.65;;;2.10;;
47113;SDS011;32867;51.556;6.832;2023-07-24T22:12:07;3.83;;;2.20;;
47113;SDS011;32867;51.556;6.832;2023-07-24T22:17:08;8.43;;;2.40;;
47113;SDS011;32867;51.556;6.832;2023-07-24T22:22:08;6.75;;;2.22;;
47113;SDS011;32867;51.556;6.832;2023-07-24T22:27:09;5.00;;;2.20;;
47113;SDS011;32867;51.556;6.832;2023-07-24T22:32:10;6.03;;;2.70;;
47113;SDS011;32867;51.556;6.832;2023-07-24T22:37:10;5.85;;;2.30;;
47113;SDS011;32867;51.556;6.832;2023-07-24T22:42:11;7.32;;;2.25;;
47113;SDS011;32867;51.556;6.832;2023-07-24T22:47:11;6.30;;;2.70;;
47113;SDS011;32867;51.556;6.832;2023-07-24T22:52:12;4.60;;;1.90;;
47113;SDS011;32867;51.556;6.832;2023-07-24T22:57:13;4.43;;;2.10;;
47113;SDS011;32867;51.556;6.832;2023-07-24T23:02:13;5.03;;;2.28;;
47113;SDS011;32867;51.556;6.832;2023-07-24T23:07:14;7.57;;;2.28;;
47113;SDS011;32867;51.556;6.832;2023-07-24T23:18:31;4.28;;;1.95;;
47113;SDS011;32867;51.556;6.832;2023-07-24T23:23:32;3.78;;;1.75;;
47113;SDS011;32867;51.556;6.832;2023-07-24T23:28:33;5.63;;;2.00;;
47113;SDS011;32867;51.556;6.832;2023-07-24T23:33:37;6.95;;;2.28;;
47113;SDS011;32867;51.556;6.832;2023-07-24T23:38:38;5.65;;;2.67;;
47113;SDS011;32867;51.556;6.832;2023-07-24T23:43:39;4.47;;;2.30;;
47113;SDS011;32867;51.556;6.832;2023-07-24T23:48:40;7.93;;;2.42;;
47113;SDS011;32867;51.556;6.832;2023-07-24T23:53:41;5.38;;;1.90;;
47113;SDS011;32867;51.556;6.832;2023-07-24T23:58:42;6.25;;;2.03;;
